createdAt,value
2019-02-09T00:00:10.418Z,0
2019-02-09T00:01:08.960Z,0
2019-02-09T00:02:07.491Z,0
2019-02-09T00:03:06.212Z,0
2019-02-09T00:04:04.818Z,0
2019-02-09T00:05:03.365Z,0
2019-02-09T00:06:02.026Z,0
2019-02-09T00:07:00.822Z,0
2019-02-09T00:07:59.352Z,0
2019-02-09T00:08:59.085Z,0
2019-02-09T00:09:57.593Z,0
2019-02-09T00:10:56.163Z,0
2019-02-09T00:11:54.870Z,0
2019-02-09T00:12:53.408Z,0
2019-02-09T00:13:52.013Z,0
2019-02-09T00:14:50.696Z,0
2019-02-09T00:15:49.268Z,0
2019-02-09T00:16:47.796Z,0
2019-02-09T00:17:46.437Z,0
2019-02-09T00:18:45.033Z,0
2019-02-09T00:19:43.558Z,0
2019-02-09T00:20:42.180Z,0
2019-02-09T00:21:40.909Z,0
2019-02-09T00:22:39.480Z,0
2019-02-09T00:23:38.118Z,0
2019-02-09T00:24:36.750Z,0
2019-02-09T00:25:35.327Z,0
2019-02-09T00:26:33.950Z,0
2019-02-09T00:27:32.585Z,0
2019-02-09T00:28:31.238Z,0
2019-02-09T00:29:29.785Z,0
2019-02-09T00:30:28.369Z,0
2019-02-09T00:31:26.948Z,0
2019-02-09T00:32:25.481Z,0
2019-02-09T00:33:24.024Z,0
2019-02-09T00:34:22.688Z,0
2019-02-09T00:35:21.214Z,0
2019-02-09T00:36:19.789Z,0
2019-02-09T00:37:19.035Z,0
2019-02-09T00:38:17.555Z,0
2019-02-09T00:39:16.116Z,0
2019-02-09T00:40:14.655Z,0
2019-02-09T00:41:13.189Z,0
2019-02-09T00:42:11.748Z,0
2019-02-09T00:43:10.352Z,0
2019-02-09T00:44:08.990Z,0
2019-02-09T00:45:07.579Z,0
2019-02-09T00:46:06.114Z,0
2019-02-09T00:47:04.887Z,0
2019-02-09T00:48:03.473Z,0
2019-02-09T00:49:02.180Z,0
2019-02-09T00:50:00.759Z,0
2019-02-09T00:50:59.305Z,0
2019-02-09T00:51:57.878Z,0
2019-02-09T00:52:56.407Z,0
2019-02-09T00:53:54.922Z,0
2019-02-09T00:54:53.479Z,0
2019-02-09T00:55:52.478Z,0
2019-02-09T00:56:51.195Z,0
2019-02-09T00:57:49.737Z,0
2019-02-09T00:58:48.350Z,0
2019-02-09T00:59:53.940Z,0
2019-02-09T01:00:45.548Z,0
2019-02-09T01:01:44.277Z,0
2019-02-09T01:02:42.956Z,0
2019-02-09T01:03:41.491Z,0
2019-02-09T01:04:40.603Z,0
2019-02-09T01:05:39.130Z,0
2019-02-09T01:06:37.686Z,0
2019-02-09T01:07:36.373Z,0
2019-02-09T01:08:35.018Z,0
2019-02-09T01:09:33.561Z,0
2019-02-09T01:10:32.124Z,0
2019-02-09T01:11:30.745Z,0
2019-02-09T01:12:29.292Z,0
2019-02-09T01:13:27.838Z,0
2019-02-09T01:14:26.602Z,0
2019-02-09T01:15:25.141Z,0
2019-02-09T01:16:23.716Z,0
2019-02-09T01:17:22.227Z,0
2019-02-09T01:18:20.769Z,0
2019-02-09T01:19:19.307Z,0
2019-02-09T01:20:17.887Z,0
2019-02-09T01:21:16.514Z,0
2019-02-09T01:22:15.093Z,0
2019-02-09T01:23:13.661Z,0
2019-02-09T01:24:12.317Z,0
2019-02-09T01:25:10.906Z,0
2019-02-09T01:26:09.497Z,0
2019-02-09T01:27:08.092Z,0
2019-02-09T01:28:06.779Z,0
2019-02-09T01:29:05.325Z,0
2019-02-09T01:30:03.912Z,0
2019-02-09T01:31:02.473Z,0
2019-02-09T01:32:01.021Z,0
2019-02-09T01:32:59.577Z,0
2019-02-09T01:33:58.186Z,0
2019-02-09T01:34:56.784Z,0
2019-02-09T01:35:55.322Z,0
2019-02-09T01:36:53.876Z,0
2019-02-09T01:37:52.730Z,0
2019-02-09T01:38:51.282Z,0
2019-02-09T01:39:49.814Z,0
2019-02-09T01:40:48.514Z,0
2019-02-09T01:41:47.064Z,0
2019-02-09T01:42:45.649Z,0
2019-02-09T01:43:44.211Z,0
2019-02-09T01:44:42.784Z,0
2019-02-09T01:45:41.463Z,0
2019-02-09T01:46:40.051Z,0
2019-02-09T01:47:38.834Z,0
2019-02-09T01:48:37.385Z,0
2019-02-09T01:49:35.934Z,0
2019-02-09T01:50:34.661Z,0
2019-02-09T01:51:33.199Z,0
2019-02-09T01:52:31.764Z,0
2019-02-09T01:53:30.330Z,0
2019-02-09T01:54:28.899Z,0
2019-02-09T01:55:27.484Z,0
2019-02-09T01:56:26.825Z,0
2019-02-09T01:57:25.364Z,0
2019-02-09T01:58:23.896Z,0
2019-02-09T01:59:22.441Z,0
2019-02-09T02:00:21.055Z,0
2019-02-09T02:01:19.951Z,0
2019-02-09T02:02:18.634Z,0
2019-02-09T02:03:17.242Z,0
2019-02-09T02:04:15.786Z,0
2019-02-09T02:05:14.470Z,0
2019-02-09T02:06:13.108Z,0
2019-02-09T02:07:11.684Z,0
2019-02-09T02:08:10.337Z,0
2019-02-09T02:09:09.020Z,0
2019-02-09T02:10:07.565Z,0
2019-02-09T02:11:06.215Z,0
2019-02-09T02:12:05.025Z,0
2019-02-09T02:13:03.558Z,0
2019-02-09T02:14:02.104Z,0
2019-02-09T02:15:00.685Z,0
2019-02-09T02:15:59.252Z,0
2019-02-09T02:16:57.783Z,0
2019-02-09T02:17:56.441Z,0
2019-02-09T02:18:54.979Z,0
2019-02-09T02:19:53.533Z,0
2019-02-09T02:20:52.090Z,0
2019-02-09T02:21:50.666Z,0
2019-02-09T02:22:49.231Z,0
2019-02-09T02:23:47.782Z,0
2019-02-09T02:24:46.458Z,0
2019-02-09T02:25:45.202Z,0
2019-02-09T02:26:43.750Z,0
2019-02-09T02:27:42.364Z,0
2019-02-09T02:28:40.907Z,0
2019-02-09T02:29:39.448Z,0
2019-02-09T02:30:38.007Z,0
2019-02-09T02:31:36.524Z,0
2019-02-09T02:32:35.093Z,0
2019-02-09T02:33:33.650Z,0
2019-02-09T02:34:32.232Z,0
2019-02-09T02:35:30.962Z,0
2019-02-09T02:36:29.558Z,0
2019-02-09T02:37:28.190Z,0
2019-02-09T02:38:26.741Z,0
2019-02-09T02:39:25.321Z,0
2019-02-09T02:40:23.908Z,0
2019-02-09T02:41:22.507Z,0
2019-02-09T02:42:21.073Z,0
2019-02-09T02:43:19.637Z,0
2019-02-09T02:44:18.183Z,0
2019-02-09T02:45:16.821Z,0
2019-02-09T02:46:15.393Z,0
2019-02-09T02:47:14.084Z,0
2019-02-09T02:48:12.682Z,0
2019-02-09T02:49:11.263Z,0
2019-02-09T02:50:09.833Z,0
2019-02-09T02:51:08.408Z,0
2019-02-09T02:52:06.984Z,0
2019-02-09T02:53:05.563Z,0
2019-02-09T02:54:04.258Z,0
2019-02-09T02:55:02.853Z,0
2019-02-09T02:56:01.391Z,0
2019-02-09T02:56:59.947Z,0
2019-02-09T02:57:58.568Z,0
2019-02-09T02:58:57.122Z,0
2019-02-09T02:59:55.982Z,0
2019-02-09T03:00:54.888Z,0
2019-02-09T03:01:53.456Z,0
2019-02-09T03:02:52.007Z,0
2019-02-09T03:03:50.661Z,0
2019-02-09T03:04:49.195Z,0
2019-02-09T03:05:48.431Z,0
2019-02-09T03:06:47.874Z,0
2019-02-09T03:07:45.649Z,0
2019-02-09T03:08:44.390Z,0
2019-02-09T03:09:42.975Z,0
2019-02-09T03:10:41.527Z,0
2019-02-09T03:11:40.125Z,0
2019-02-09T03:12:39.092Z,0
2019-02-09T03:13:37.671Z,0
2019-02-09T03:14:36.221Z,0
2019-02-09T03:15:34.791Z,0
2019-02-09T03:16:33.351Z,0
2019-02-09T03:17:31.970Z,0
2019-02-09T03:18:30.592Z,0
2019-02-09T03:19:29.197Z,0
2019-02-09T03:20:27.752Z,0
2019-02-09T03:21:26.374Z,0
2019-02-09T03:22:25.148Z,0
2019-02-09T03:23:23.700Z,0
2019-02-09T03:24:22.264Z,0
2019-02-09T03:25:20.809Z,0
2019-02-09T03:26:19.358Z,0
2019-02-09T03:27:17.921Z,0
2019-02-09T03:28:16.457Z,0
2019-02-09T03:29:15.033Z,0
2019-02-09T03:30:13.615Z,0
2019-02-09T03:31:12.226Z,0
2019-02-09T03:32:11.173Z,0
2019-02-09T03:33:09.443Z,0
2019-02-09T03:34:08.727Z,0
2019-02-09T03:35:07.287Z,0
2019-02-09T03:36:05.827Z,0
2019-02-09T03:37:04.530Z,0
2019-02-09T03:38:03.051Z,0
2019-02-09T03:39:01.594Z,0
2019-02-09T03:40:00.318Z,0
2019-02-09T03:40:59.137Z,0
2019-02-09T03:41:57.747Z,0
2019-02-09T03:42:56.370Z,0
2019-02-09T03:43:54.915Z,0
2019-02-09T03:44:53.469Z,0
2019-02-09T03:45:52.014Z,0
2019-02-09T03:46:50.694Z,0
2019-02-09T03:47:49.249Z,0
2019-02-09T03:48:47.789Z,0
2019-02-09T03:49:46.463Z,0
2019-02-09T03:50:45.029Z,0
2019-02-09T03:51:43.601Z,0
2019-02-09T03:52:42.161Z,0
2019-02-09T03:53:40.733Z,0
2019-02-09T03:54:39.317Z,0
2019-02-09T03:55:37.914Z,0
2019-02-09T03:56:36.557Z,0
2019-02-09T03:57:35.085Z,0
2019-02-09T03:58:33.618Z,0
2019-02-09T03:59:32.427Z,0
2019-02-09T04:00:31.010Z,0
2019-02-09T04:01:29.562Z,0
2019-02-09T04:02:28.083Z,0
2019-02-09T04:03:26.846Z,0
2019-02-09T04:04:25.408Z,0
2019-02-09T04:05:23.922Z,0
2019-02-09T04:06:22.481Z,0
2019-02-09T04:07:21.077Z,0
2019-02-09T04:08:19.614Z,0
2019-02-09T04:09:18.269Z,0
2019-02-09T04:10:16.911Z,0
2019-02-09T04:11:15.467Z,0
2019-02-09T04:12:13.999Z,0
2019-02-09T04:13:12.757Z,0
2019-02-09T04:14:11.315Z,0
2019-02-09T04:15:09.904Z,0
2019-02-09T04:16:08.594Z,0
2019-02-09T04:17:07.173Z,0
2019-02-09T04:18:05.777Z,0
2019-02-09T04:19:04.491Z,0
2019-02-09T04:20:03.143Z,0
2019-02-09T04:21:01.675Z,0
2019-02-09T04:22:00.368Z,0
2019-02-09T04:22:59.102Z,0
2019-02-09T04:23:57.631Z,0
2019-02-09T04:24:56.305Z,0
2019-02-09T04:25:54.855Z,0
2019-02-09T04:26:53.441Z,0
2019-02-09T04:27:52.023Z,0
2019-02-09T04:28:50.908Z,0
2019-02-09T04:29:49.475Z,0
2019-02-09T04:30:48.026Z,0
2019-02-09T04:31:46.717Z,0
2019-02-09T04:32:45.260Z,0
2019-02-09T04:33:43.831Z,0
2019-02-09T04:34:42.387Z,0
2019-02-09T04:35:40.981Z,0
2019-02-09T04:36:40.395Z,0
2019-02-09T04:37:38.963Z,0
2019-02-09T04:38:37.529Z,0
2019-02-09T04:39:36.087Z,0
2019-02-09T04:40:34.744Z,0
2019-02-09T04:41:34.041Z,0
2019-02-09T04:42:31.947Z,0
2019-02-09T04:43:30.631Z,0
2019-02-09T04:44:29.201Z,0
2019-02-09T04:45:27.747Z,0
2019-02-09T04:46:26.322Z,0
2019-02-09T04:47:24.963Z,0
2019-02-09T04:48:23.513Z,0
2019-02-09T04:49:22.778Z,0
2019-02-09T04:50:21.335Z,0
2019-02-09T04:51:19.897Z,0
2019-02-09T04:52:18.543Z,0
2019-02-09T04:53:17.072Z,0
2019-02-09T04:54:15.637Z,0
2019-02-09T04:55:14.200Z,0
2019-02-09T04:56:12.768Z,0
2019-02-09T04:57:11.304Z,0
2019-02-09T04:58:09.856Z,0
2019-02-09T04:59:08.397Z,0
2019-02-09T05:00:06.968Z,0
2019-02-09T05:01:13.513Z,0
2019-02-09T05:02:04.229Z,0
2019-02-09T05:03:02.900Z,0
2019-02-09T05:04:01.493Z,0
2019-02-09T05:05:00.047Z,0
2019-02-09T05:05:58.862Z,0
2019-02-09T05:06:57.395Z,0
2019-02-09T05:07:55.955Z,0
2019-02-09T05:08:54.505Z,0
2019-02-09T05:09:53.069Z,0
2019-02-09T05:10:51.655Z,0
2019-02-09T05:11:50.211Z,0
2019-02-09T05:12:48.926Z,0
2019-02-09T05:13:47.465Z,0
2019-02-09T05:14:46.210Z,0
2019-02-09T05:15:44.990Z,0
2019-02-09T05:16:43.533Z,0
2019-02-09T05:17:42.060Z,0
2019-02-09T05:18:40.814Z,0
2019-02-09T05:19:39.426Z,0
2019-02-09T05:20:37.965Z,0
2019-02-09T05:21:36.550Z,0
2019-02-09T05:22:35.202Z,0
2019-02-09T05:23:33.765Z,0
2019-02-09T05:24:32.368Z,0
2019-02-09T05:25:31.027Z,0
2019-02-09T05:26:29.596Z,0
2019-02-09T05:27:28.246Z,0
2019-02-09T05:28:26.817Z,0
2019-02-09T05:29:25.378Z,0
2019-02-09T05:30:23.960Z,0
2019-02-09T05:31:23.276Z,0
2019-02-09T05:32:21.213Z,0
2019-02-09T05:33:19.782Z,0
2019-02-09T05:34:18.531Z,0
2019-02-09T05:35:17.172Z,0
2019-02-09T05:36:15.734Z,0
2019-02-09T05:37:14.384Z,0
2019-02-09T05:38:12.949Z,0
2019-02-09T05:39:12.203Z,0
2019-02-09T05:40:11.037Z,0
2019-02-09T05:41:09.590Z,0
2019-02-09T05:42:08.210Z,0
2019-02-09T05:43:06.901Z,0
2019-02-09T05:44:05.456Z,0
2019-02-09T05:45:04.176Z,0
2019-02-09T05:46:02.900Z,0
2019-02-09T05:47:01.483Z,0
2019-02-09T05:48:00.022Z,0
2019-02-09T05:48:58.623Z,0
2019-02-09T05:49:57.143Z,0
2019-02-09T05:50:55.677Z,0
2019-02-09T05:51:54.216Z,0
2019-02-09T05:52:52.762Z,0
2019-02-09T05:53:51.344Z,0
2019-02-09T05:54:50.017Z,0
2019-02-09T05:55:48.877Z,0
2019-02-09T05:56:47.423Z,0
2019-02-09T05:57:46.214Z,0
2019-02-09T05:58:44.759Z,0
2019-02-09T05:59:43.305Z,0
2019-02-09T06:00:41.868Z,0
2019-02-09T06:01:40.634Z,0
2019-02-09T06:02:39.260Z,0
2019-02-09T06:03:37.826Z,0
2019-02-09T06:04:36.442Z,0
2019-02-09T06:05:34.985Z,0
2019-02-09T06:06:33.559Z,0
2019-02-09T06:07:32.091Z,0
2019-02-09T06:08:31.005Z,0
2019-02-09T06:09:29.552Z,0
2019-02-09T06:10:28.237Z,0
2019-02-09T06:11:26.864Z,0
2019-02-09T06:12:25.437Z,0
2019-02-09T06:13:24.270Z,0
2019-02-09T06:14:22.876Z,0
2019-02-09T06:15:21.658Z,0
2019-02-09T06:16:20.348Z,0
2019-02-09T06:17:19.109Z,0
2019-02-09T06:18:17.651Z,0
2019-02-09T06:19:16.213Z,0
2019-02-09T06:20:14.879Z,0
2019-02-09T06:21:13.413Z,0
2019-02-09T06:22:13.033Z,0
2019-02-09T06:23:11.744Z,0
2019-02-09T06:24:10.309Z,0
2019-02-09T06:25:08.876Z,0
2019-02-09T06:26:07.445Z,0
2019-02-09T06:27:06.039Z,0
2019-02-09T06:28:04.897Z,0
2019-02-09T06:29:03.454Z,0
2019-02-09T06:30:02.048Z,0
2019-02-09T06:31:00.581Z,0
2019-02-09T06:31:59.137Z,0
2019-02-09T06:32:57.704Z,0
2019-02-09T06:33:56.290Z,0
2019-02-09T06:34:54.837Z,0
2019-02-09T06:35:53.422Z,0
2019-02-09T06:36:51.935Z,0
2019-02-09T06:37:50.473Z,0
2019-02-09T06:38:49.074Z,0
2019-02-09T06:39:47.630Z,0
2019-02-09T06:40:46.287Z,0
2019-02-09T06:41:44.893Z,0
2019-02-09T06:42:43.442Z,0
2019-02-09T06:43:42.033Z,0
2019-02-09T06:44:40.686Z,0
2019-02-09T06:45:39.231Z,0
2019-02-09T06:46:37.768Z,0
2019-02-09T06:47:36.387Z,0
2019-02-09T06:48:35.035Z,0
2019-02-09T06:49:33.590Z,0
2019-02-09T06:50:32.355Z,0
2019-02-09T06:51:30.954Z,0
2019-02-09T06:52:29.501Z,0
2019-02-09T06:53:28.113Z,0
2019-02-09T06:54:26.781Z,0
2019-02-09T06:55:25.330Z,0
2019-02-09T06:56:23.878Z,0
2019-02-09T06:57:22.801Z,0
2019-02-09T06:58:21.350Z,0
2019-02-09T06:59:20.048Z,0
2019-02-09T07:00:18.905Z,5
2019-02-09T07:01:17.509Z,5
2019-02-09T07:02:16.182Z,0
2019-02-09T07:03:14.861Z,5
2019-02-09T07:04:13.556Z,0
2019-02-09T07:05:13.078Z,0
2019-02-09T07:06:11.174Z,0
2019-02-09T07:07:09.746Z,0
2019-02-09T07:08:08.337Z,0
2019-02-09T07:09:06.890Z,0
2019-02-09T07:10:05.538Z,0
2019-02-09T07:11:04.237Z,0
2019-02-09T07:12:02.948Z,5
2019-02-09T07:13:01.510Z,5
2019-02-09T07:14:00.048Z,5
2019-02-09T07:14:58.913Z,5
2019-02-09T07:15:57.556Z,5
2019-02-09T07:16:56.095Z,5
2019-02-09T07:17:54.630Z,5
2019-02-09T07:18:53.197Z,5
2019-02-09T07:19:51.755Z,5
2019-02-09T07:20:50.377Z,5
2019-02-09T07:21:48.989Z,5
2019-02-09T07:22:47.564Z,5
2019-02-09T07:23:46.264Z,5
2019-02-09T07:24:45.006Z,5
2019-02-09T07:25:43.566Z,5
2019-02-09T07:26:42.140Z,5
2019-02-09T07:27:40.674Z,5
2019-02-09T07:28:39.238Z,5
2019-02-09T07:29:37.790Z,5
2019-02-09T07:30:36.327Z,5
2019-02-09T07:31:35.166Z,5
2019-02-09T07:32:33.798Z,5
2019-02-09T07:33:32.490Z,5
2019-02-09T07:34:31.127Z,5
2019-02-09T07:35:29.650Z,5
2019-02-09T07:36:28.225Z,5
2019-02-09T07:37:26.816Z,5
2019-02-09T07:38:25.382Z,5
2019-02-09T07:39:24.003Z,10
2019-02-09T07:40:22.732Z,10
2019-02-09T07:41:21.317Z,10
2019-02-09T07:42:19.883Z,10
2019-02-09T07:43:18.573Z,10
2019-02-09T07:44:17.141Z,10
2019-02-09T07:45:15.722Z,10
2019-02-09T07:46:14.334Z,10
2019-02-09T07:47:13.007Z,10
2019-02-09T07:48:11.591Z,15
2019-02-09T07:49:10.136Z,10
2019-02-09T07:50:08.882Z,10
2019-02-09T07:51:07.502Z,10
2019-02-09T07:52:06.100Z,15
2019-02-09T07:54:46.194Z,15
2019-02-09T07:55:44.852Z,20
2019-02-09T07:56:43.494Z,20
2019-02-09T07:57:42.016Z,20
2019-02-09T08:00:22.226Z,25
2019-02-09T08:01:20.845Z,25
2019-02-09T08:02:19.416Z,25
2019-02-09T08:03:18.093Z,25
2019-02-09T08:04:16.715Z,30
2019-02-09T08:05:15.547Z,35
2019-02-09T08:06:14.110Z,40
2019-02-09T08:07:12.695Z,40
2019-02-09T08:08:11.296Z,40
2019-02-09T08:09:09.825Z,40
2019-02-09T08:10:08.456Z,50
2019-02-09T08:11:09.096Z,50
2019-02-09T08:12:05.703Z,50
2019-02-09T08:13:04.374Z,50
2019-02-09T08:14:03.143Z,50
2019-02-09T08:15:01.815Z,50
2019-02-09T08:16:00.453Z,50
2019-02-09T08:16:59.014Z,45
2019-02-09T08:17:57.586Z,55
2019-02-09T08:18:56.168Z,75
2019-02-09T08:19:54.965Z,80
2019-02-09T08:20:53.586Z,85
2019-02-09T08:21:52.201Z,85
2019-02-09T08:22:50.795Z,80
2019-02-09T08:23:49.397Z,75
2019-02-09T08:24:47.984Z,80
2019-02-09T08:25:46.607Z,75
2019-02-09T08:26:45.207Z,75
2019-02-09T08:27:45.930Z,75
2019-02-09T08:28:44.590Z,65
2019-02-09T08:29:43.264Z,55
2019-02-09T08:30:41.824Z,50
2019-02-09T08:31:40.423Z,45
2019-02-09T08:32:39.000Z,40
2019-02-09T08:33:37.540Z,40
2019-02-09T08:34:36.110Z,40
2019-02-09T08:35:34.631Z,35
2019-02-09T08:36:33.235Z,35
2019-02-09T08:37:31.814Z,35
2019-02-09T08:38:30.543Z,45
2019-02-09T08:39:29.133Z,60
2019-02-09T08:42:12.157Z,90
2019-02-09T08:43:10.894Z,90
2019-02-09T08:44:09.464Z,95
2019-02-09T08:47:07.603Z,80
2019-02-09T08:48:06.185Z,70
2019-02-09T08:49:04.880Z,65
2019-02-09T08:50:03.470Z,55
2019-02-09T08:51:02.025Z,55
2019-02-09T08:52:00.585Z,50
2019-02-09T08:52:59.166Z,40
2019-02-09T08:53:57.705Z,35
2019-02-09T08:54:56.306Z,35
2019-02-09T08:55:54.886Z,30
2019-02-09T08:56:53.446Z,30
2019-02-09T08:57:51.973Z,35
2019-02-09T08:58:50.635Z,40
2019-02-09T08:59:49.253Z,40
2019-02-09T09:00:47.946Z,40
2019-02-09T09:01:46.683Z,35
2019-02-09T09:02:45.260Z,40
2019-02-09T09:03:43.794Z,40
2019-02-09T09:04:42.368Z,50
2019-02-09T09:05:40.949Z,40
2019-02-09T09:06:39.527Z,35
2019-02-09T09:07:38.204Z,30
2019-02-09T09:08:36.981Z,25
2019-02-09T09:09:35.549Z,20
2019-02-09T09:10:34.327Z,20
2019-02-09T09:11:32.862Z,20
2019-02-09T09:12:31.425Z,25
2019-02-09T09:13:29.950Z,35
2019-02-09T09:14:28.696Z,45
2019-02-09T09:15:27.247Z,40
2019-02-09T09:16:25.818Z,35
2019-02-09T09:17:24.595Z,25
2019-02-09T09:18:23.173Z,25
2019-02-09T09:19:21.719Z,30
2019-02-09T09:20:20.436Z,35
2019-02-09T09:21:19.029Z,35
2019-02-09T09:22:17.601Z,30
2019-02-09T09:23:16.178Z,25
2019-02-09T09:24:14.804Z,30
2019-02-09T09:25:13.383Z,25
2019-02-09T09:26:11.925Z,25
2019-02-09T09:27:10.718Z,25
2019-02-09T09:28:09.396Z,30
2019-02-09T09:29:08.004Z,35
2019-02-09T09:30:07.023Z,35
2019-02-09T09:31:05.288Z,35
2019-02-09T09:32:03.869Z,30
2019-02-09T09:33:02.612Z,30
2019-02-09T09:34:01.641Z,30
2019-02-09T09:35:00.258Z,30
2019-02-09T09:35:58.829Z,25
2019-02-09T09:36:57.437Z,25
2019-02-09T09:37:56.125Z,25
2019-02-09T09:38:54.740Z,25
2019-02-09T09:39:53.408Z,40
2019-02-09T09:40:51.967Z,50
2019-02-09T09:41:50.814Z,60
2019-02-09T09:42:49.352Z,65
2019-02-09T09:43:47.909Z,65
2019-02-09T09:44:46.721Z,60
2019-02-09T09:45:45.327Z,50
2019-02-09T09:46:43.873Z,50
2019-02-09T09:47:42.613Z,55
2019-02-09T09:48:41.268Z,45
2019-02-09T09:49:39.801Z,40
2019-02-09T09:50:38.464Z,40
2019-02-09T09:51:36.997Z,50
2019-02-09T09:52:35.570Z,60
2019-02-09T09:53:34.163Z,65
2019-02-09T09:54:32.910Z,75
2019-02-09T09:55:31.506Z,85
2019-02-09T09:56:30.062Z,90
2019-02-09T09:57:28.765Z,80
2019-02-09T09:58:27.472Z,75
2019-02-09T09:59:26.010Z,85
2019-02-09T10:00:24.623Z,90
2019-02-09T10:03:16.387Z,70
2019-02-09T10:04:14.927Z,70
2019-02-09T10:05:13.467Z,75
2019-02-09T10:06:12.132Z,60
2019-02-09T10:07:10.782Z,45
2019-02-09T10:08:09.385Z,35
2019-02-09T10:09:07.982Z,40
2019-02-09T10:10:06.860Z,40
2019-02-09T10:11:05.395Z,40
2019-02-09T10:12:03.934Z,50
2019-02-09T10:13:02.523Z,50
2019-02-09T10:14:08.509Z,60
2019-02-09T10:14:59.632Z,55
2019-02-09T10:15:58.257Z,45
2019-02-09T10:16:56.930Z,40
2019-02-09T10:17:55.480Z,35
2019-02-09T10:18:54.050Z,40
2019-02-09T10:19:52.711Z,60
2019-02-09T10:31:41.411Z,35
2019-02-09T10:35:20.445Z,35
2019-02-09T10:36:19.090Z,35
2019-02-09T10:37:17.631Z,40
2019-02-09T10:38:16.228Z,45
2019-02-09T10:39:14.778Z,50
2019-02-09T10:40:13.316Z,50
2019-02-09T10:41:11.867Z,50
2019-02-09T10:42:10.536Z,55
2019-02-09T10:43:09.199Z,55
2019-02-09T10:44:07.758Z,55
2019-02-09T10:45:06.444Z,55
2019-02-09T10:46:05.151Z,65
2019-02-09T10:47:03.877Z,60
2019-02-09T10:48:02.485Z,60
2019-02-09T10:49:00.979Z,60
2019-02-09T10:52:39.908Z,70
2019-02-09T10:53:38.506Z,65
2019-02-09T10:54:37.254Z,70
2019-02-09T10:55:35.871Z,60
2019-02-09T10:56:34.551Z,60
2019-02-09T10:57:33.190Z,55
2019-02-09T10:58:31.807Z,55
2019-02-09T10:59:30.431Z,60
2019-02-09T11:00:29.029Z,60
2019-02-09T11:01:27.758Z,55
2019-02-09T11:02:26.379Z,65
2019-02-09T11:03:24.987Z,65
2019-02-09T11:04:23.589Z,60
2019-02-09T11:05:22.161Z,55
2019-02-09T11:06:20.841Z,65
2019-02-09T11:07:19.486Z,90
2019-02-09T11:08:18.075Z,90
2019-02-09T11:09:16.624Z,80
2019-02-09T11:10:15.273Z,80
2019-02-09T11:11:13.819Z,80
2019-02-09T11:12:12.583Z,65
2019-02-09T11:13:11.198Z,60
2019-02-09T11:14:09.756Z,65
2019-02-09T11:15:08.477Z,85
2019-02-09T11:16:07.063Z,85
2019-02-09T11:17:05.636Z,75
2019-02-09T11:18:04.338Z,70
2019-02-09T11:19:03.029Z,70
2019-02-09T11:20:01.678Z,70
2019-02-09T11:21:00.207Z,75
2019-02-09T11:21:58.767Z,80
2019-02-09T11:22:57.418Z,65
2019-02-09T11:23:55.998Z,65
2019-02-09T11:24:54.674Z,85
2019-02-09T11:25:53.370Z,85
2019-02-09T11:26:51.922Z,85
2019-02-09T11:27:50.971Z,90
2019-02-09T11:28:49.339Z,95
2019-02-09T11:29:47.914Z,100
2019-02-09T11:30:46.482Z,100
2019-02-09T11:31:45.055Z,105
2019-02-09T11:32:43.678Z,115
2019-02-09T11:33:42.310Z,120
2019-02-09T11:34:41.119Z,120
2019-02-09T11:35:39.726Z,125
2019-02-09T11:36:38.430Z,130
2019-02-09T11:37:37.048Z,135
2019-02-09T11:38:35.632Z,150
2019-02-09T11:39:34.390Z,155
2019-02-09T11:40:33.168Z,160
2019-02-09T11:43:13.300Z,160
2019-02-09T11:44:11.832Z,155
2019-02-09T11:45:10.473Z,145
2019-02-09T11:46:09.077Z,140
2019-02-09T11:47:07.646Z,140
2019-02-09T11:48:06.320Z,135
2019-02-09T11:50:47.254Z,140
2019-02-09T11:51:45.582Z,135
2019-02-09T11:52:44.294Z,115
2019-02-09T11:53:42.968Z,125
2019-02-09T11:54:41.765Z,120
2019-02-09T11:55:40.353Z,105
2019-02-09T11:56:38.940Z,105
2019-02-09T11:57:37.512Z,105
2019-02-09T12:15:43.492Z,55
2019-02-09T12:16:42.203Z,55
2019-02-09T12:17:40.831Z,55
2019-02-09T12:20:22.654Z,80
2019-02-09T12:21:21.847Z,90
2019-02-09T12:22:19.967Z,90
2019-02-09T12:23:18.632Z,85
2019-02-09T12:24:17.158Z,85
2019-02-09T12:25:15.699Z,75
2019-02-09T12:26:14.491Z,60
2019-02-09T12:27:13.233Z,55
2019-02-09T12:28:11.807Z,50
2019-02-09T12:29:10.972Z,50
2019-02-09T12:31:51.127Z,70
2019-02-09T12:32:49.848Z,70
2019-02-09T12:50:49.410Z,30
2019-02-09T12:51:48.005Z,30
2019-02-09T12:52:46.946Z,35
2019-02-09T12:53:45.669Z,35
2019-02-09T12:54:44.183Z,35
2019-02-09T12:55:42.940Z,35
2019-02-09T12:56:41.581Z,45
2019-02-09T12:57:40.191Z,60
2019-02-09T12:58:38.917Z,80
2019-02-09T13:01:03.107Z,120
2019-02-09T13:02:01.659Z,125
2019-02-09T13:03:00.174Z,120
2019-02-09T13:03:58.772Z,115
2019-02-09T13:04:57.587Z,110
2019-02-09T13:05:56.130Z,110
2019-02-09T13:06:54.928Z,110
2019-02-09T13:07:53.614Z,110
2019-02-09T13:08:52.147Z,110
2019-02-09T13:09:50.863Z,110
2019-02-09T13:10:49.437Z,115
2019-02-09T13:11:48.159Z,120
2019-02-09T13:12:46.882Z,125
2019-02-09T13:13:45.559Z,125
2019-02-09T13:14:44.139Z,115
2019-02-09T13:15:43.029Z,100
2019-02-09T13:16:41.636Z,85
2019-02-09T13:17:40.375Z,75
2019-02-09T13:18:39.201Z,70
2019-02-09T13:19:37.929Z,75
2019-02-09T13:20:36.543Z,65
2019-02-09T13:24:15.575Z,90
2019-02-09T13:25:14.147Z,100
2019-02-09T13:27:36.878Z,90
2019-02-09T13:28:35.456Z,75
2019-02-09T13:29:34.030Z,70
2019-02-09T13:30:32.627Z,70
2019-02-09T13:31:31.210Z,80
2019-02-09T13:32:29.790Z,95
2019-02-09T13:33:28.364Z,95
2019-02-09T13:34:26.939Z,85
2019-02-09T13:35:25.590Z,75
2019-02-09T13:36:24.158Z,60
2019-02-09T13:37:23.102Z,60
2019-02-09T13:38:21.695Z,60
2019-02-09T13:39:20.433Z,65
2019-02-09T13:40:19.188Z,75
2019-02-09T13:41:17.734Z,85
2019-02-09T13:42:16.347Z,100
2019-02-09T13:43:15.141Z,105
2019-02-09T13:44:13.666Z,100
2019-02-09T13:45:12.233Z,90
2019-02-09T13:51:59.229Z,110
2019-02-09T13:52:57.891Z,105
2019-02-09T13:58:18.619Z,55
2019-02-09T13:59:17.356Z,60
2019-02-09T14:00:16.077Z,65
2019-02-09T14:01:14.655Z,75
2019-02-09T14:02:13.311Z,85
2019-02-09T14:03:11.829Z,95
2019-02-09T14:04:10.415Z,100
2019-02-09T14:05:09.250Z,90
2019-02-09T14:06:08.525Z,90
2019-02-09T14:07:06.482Z,80
2019-02-09T14:08:05.289Z,70
2019-02-09T14:09:03.946Z,65
2019-02-09T14:10:02.482Z,70
2019-02-09T14:11:01.097Z,70
2019-02-09T14:11:59.682Z,75
2019-02-09T14:14:33.635Z,75
2019-02-09T14:15:32.160Z,80
2019-02-09T14:16:38.405Z,85
2019-02-09T14:17:29.445Z,85
2019-02-09T14:18:28.121Z,80
2019-02-09T14:19:26.789Z,80
2019-02-09T14:20:25.481Z,85
2019-02-09T14:21:24.091Z,90
2019-02-09T14:22:22.733Z,90
2019-02-09T14:23:21.398Z,90
2019-02-09T14:24:19.943Z,90
2019-02-09T14:25:18.632Z,90
2019-02-09T14:26:17.317Z,95
2019-02-09T14:27:15.882Z,95
2019-02-09T14:28:14.471Z,90
2019-02-09T14:29:13.239Z,90
2019-02-09T14:30:11.862Z,85
2019-02-09T14:31:10.411Z,80
2019-02-09T14:32:09.082Z,75
2019-02-09T14:33:07.681Z,70
2019-02-09T14:34:06.303Z,70
2019-02-09T14:35:05.060Z,70
2019-02-09T14:36:03.738Z,70
2019-02-09T14:37:02.495Z,70
2019-02-09T14:38:01.138Z,75
2019-02-09T14:38:59.750Z,80
2019-02-09T14:39:58.373Z,80
2019-02-09T14:40:57.174Z,85
2019-02-09T14:41:55.768Z,85
2019-02-09T14:42:54.385Z,85
2019-02-09T14:43:53.053Z,90
2019-02-09T14:44:51.671Z,90
2019-02-09T14:45:50.302Z,85
2019-02-09T14:46:48.945Z,85
2019-02-09T14:47:47.676Z,80
2019-02-09T14:48:46.459Z,80
2019-02-09T14:49:45.118Z,80
2019-02-09T14:50:43.771Z,80
2019-02-09T14:51:42.535Z,80
2019-02-09T14:52:41.372Z,80
2019-02-09T14:53:39.981Z,80
2019-02-09T14:54:38.530Z,80
2019-02-09T14:55:37.152Z,80
2019-02-09T14:56:35.689Z,80
2019-02-09T14:57:34.316Z,80
2019-02-09T14:58:32.892Z,80
2019-02-09T14:59:31.459Z,80
2019-02-09T15:00:30.038Z,80
2019-02-09T15:01:28.984Z,75
2019-02-09T15:02:27.615Z,70
2019-02-09T15:03:30.198Z,65
2019-02-09T15:04:24.779Z,65
2019-02-09T15:05:23.399Z,65
2019-02-09T15:06:21.961Z,65
2019-02-09T15:07:20.704Z,65
2019-02-09T15:08:19.418Z,65
2019-02-09T15:09:17.968Z,60
2019-02-09T15:10:16.587Z,60
2019-02-09T15:11:15.158Z,60
2019-02-09T15:12:13.742Z,60
2019-02-09T15:13:12.363Z,60
2019-02-09T15:14:10.982Z,55
2019-02-09T15:15:09.619Z,55
2019-02-09T15:16:08.217Z,55
2019-02-09T15:17:06.935Z,55
2019-02-09T15:18:05.513Z,55
2019-02-09T15:19:04.081Z,55
2019-02-09T15:20:02.820Z,55
2019-02-09T15:21:01.470Z,55
2019-02-09T15:22:00.051Z,55
2019-02-09T15:22:58.741Z,50
2019-02-09T15:23:57.299Z,50
2019-02-09T15:24:55.954Z,50
2019-02-09T15:25:54.570Z,50
2019-02-09T15:26:53.494Z,45
2019-02-09T15:27:52.066Z,45
2019-02-09T15:28:50.778Z,45
2019-02-09T15:29:49.348Z,45
2019-02-09T15:30:48.028Z,45
2019-02-09T15:31:46.726Z,45
2019-02-09T15:32:45.436Z,45
2019-02-09T15:33:44.096Z,45